CZPC

Pincher Creek Airport

Pincher Creek, , Canada
METAR CZPC 201800Z AUTO 25015KT 230V320 9SM FEW240 12/M03 A3008 RMK SLP204 DENSITY ALT 4200FT
Observed Flight Rules
Apr-20 @ 18:00 UTC (30 minutes ago) Visual Flight Rules
Wind Visibility Clouds
250° at 15 knots 9 miles
  • Few at 24,000' AGL
Temperatures Readings
Current 12°C / 54°F
Dewpoint -3°C / 27°F
Humidity 35%
Altimeter 30.08" Hg
Pressure 1020.4 hPa
Elevation 1190
METAR CZPC 201800Z AUTO 25015KT 230V320 9SM FEW240 12/M03 A3008 RMK SLP204 DENSITY ALT 4200FT
Observed Flight Rules
Apr-20 @ 18:00 UTC
(30 minutes ago)
VFR
Wind Visibility
250° at 15 knots 9 miles
Clouds
  • Few at 24,000' AGL
Temperature Dewpoint
12°C / 54°F -3°C / 27°F
Humidity Altimeter Pressure
35% 30.08" Hg 1020.4 hPa